Flight Track Log - Related Links

Times and Time Zones

All times are in EDT time to prevent confusion due to time zone crossing. See the N541JD flight status page for this flight to view local times or setup timezone preferences in your user account.

Time Position Orientation Groundspeed Altitude Reporting Facility
EDT Latitude Longitude Course Direction KTS MPH feet Rate Location/Type
Fri 06:20:24 PM 33.2847 -86.9214 114° Southeast 141 162 1,800  Level Atlanta Center
Fri 06:21:43 PM 33.2756 -86.8589 100° East 151 174 2,800 822 Climbing Atlanta Center
Fri 06:22:50 PM 33.2686 -86.8042 99° East 144 166 3,800 893 Climbing Atlanta Center
Fri 06:23:44 PM 33.2589 -86.7639 106° East 138 159 4,600 783 Climbing Atlanta Center
Fri 06:24:00 PM 33.3493 -86.5151 100° East  Level Estimated
Fri 06:24:45 PM 33.2453 -86.7214 111° Southeast 146 168 5,300  Level Atlanta Center
Fri 06:25:00 PM 33.3294 -86.4610 114° Southeast  Level FlightAware Approximate
Fri 06:25:40 PM 33.2461 -86.6792 89° East 144 166 5,900  Level Atlanta Center
Fri 06:26:46 PM 33.2369 -86.6267 102° East 149 171 6,600 614 Climbing Atlanta Center
Fri 06:27:47 PM 33.2275 -86.5792 103° East 146 168 7,200 645 Climbing Atlanta Center
Fri 06:28:47 PM 33.2200 -86.5344 101° East 143 165 7,900 645 Climbing Atlanta Center
Fri 06:29:48 PM 33.2147 -86.4844 97° East 146 168 8,500 517 Climbing Atlanta Center
Fri 06:30:43 PM 33.2094 -86.4372 98° East 151 174 8,900 261 Climbing Atlanta Center
Fri 06:31:43 PM 33.2022 -86.3825 99° East 170 196 9,000 97 Climbing Atlanta Center
Fri 06:32:47 PM 33.1969 -86.3203 96° East 199 229 9,100  Climbing Atlanta Center
Fri 06:33:47 PM 33.1897 -86.2606 98° East 193 222 9,000 -50 Descending Atlanta Center
Fri 06:34:47 PM 33.1803 -86.2031 101° East 188 216 9,000  Level Atlanta Center
Fri 06:35:47 PM 33.1731 -86.1483 99° East 174 200 9,000  Level Atlanta Center
Fri 06:36:47 PM 33.1678 -86.0911 96° East 174 200 9,000  Level Atlanta Center
Fri 06:37:47 PM 33.1603 -86.0314 99° East 169 194 9,000  Level Atlanta Center
Fri 06:38:47 PM 33.1508 -85.9792 102° East 169 194 9,000  Level Atlanta Center
Fri 06:39:47 PM 33.1433 -85.9194 99° East 169 194 9,000  Level Atlanta Center
Fri 06:40:47 PM 33.1378 -85.8622 97° East 169 194 9,000  Level Atlanta Center
Fri 06:41:47 PM 33.1283 -85.8050 101° East 169 194 9,000  Level Atlanta Center
Fri 06:42:47 PM 33.1208 -85.7503 99° East 169 194 9,000  Level Atlanta Center
Fri 06:43:47 PM 33.1131 -85.6906 99° East 169 194 9,000  Level Atlanta Center
Fri 06:44:47 PM 33.1078 -85.6333 96° East 169 194 9,000  Level Atlanta Center
Fri 06:45:47 PM 33.0981 -85.5761 101° East 169 194 9,000  Level Atlanta Center
Fri 06:46:47 PM 33.0883 -85.5139 101° East 169 194 9,000  Level Atlanta Center
Fri 06:47:47 PM 33.0825 -85.4644 98° East 169 194 9,000  Level Atlanta Center
Fri 06:49:54 PM 33.0667 -85.3333 98° East 177 204 9,000  Level Atlanta TRACON
Fri 06:50:54 PM 33.0500 -85.2833 112° Southeast 174 200 9,000  Level Atlanta TRACON
Fri 06:51:54 PM 33.0500 -85.2167 90° East 176 203 9,000  Level Atlanta TRACON
Fri 06:52:54 PM 33.0500 -85.1667 90° East 168 193 9,000  Level Atlanta TRACON
Fri 06:54:00 PM 33.0500 -85.1000 90° East 171 197 9,000 -95 Level Atlanta TRACON
Fri 06:55:00 PM 33.0500 -85.0500 90° East 174 200 8,800 -350 Descending Atlanta TRACON
Fri 06:56:00 PM 33.0500 -84.9833 90° East 191 220 8,300 -526 Descending Atlanta TRACON
Fri 06:56:54 PM 33.0500 -84.9333 90° East 197 227 7,800 -579 Descending Atlanta TRACON
Fri 06:57:54 PM 33.0500 -84.8500 90° East 196 226 7,200 -400 Descending Atlanta TRACON
Fri 06:58:54 PM 33.0500 -84.8000 90° East 183 211 7,000 -100 Descending Atlanta TRACON
Fri 06:59:54 PM 33.0667 -84.7333 73° East 174 200 7,000  Level Atlanta TRACON
Fri 07:00:54 PM 33.0667 -84.6833 90° East 180 207 7,000  Level Atlanta TRACON
Fri 07:01:54 PM 33.0667 -84.6167 90° East 187 215 7,000  Level Atlanta TRACON
Fri 07:02:54 PM 33.0667 -84.5667 90° East 183 211 7,000  Level Atlanta TRACON
Fri 07:03:54 PM 33.0667 -84.5000 90° East 186 214 7,000 -200 Level Atlanta TRACON
Fri 07:04:54 PM 33.0833 -84.4333 73° East 198 228 6,600 -400 Descending Atlanta TRACON
Fri 07:05:54 PM 33.1000 -84.3833 68° East 197 227 6,200 -450 Descending Atlanta TRACON
Fri 07:06:54 PM 33.1333 -84.3167 59° Northeast 198 228 5,700 -500 Descending Atlanta TRACON
Fri 07:07:54 PM 33.1500 -84.2667 68° East 198 228 5,200 -350 Descending Atlanta TRACON
Fri 07:08:54 PM 33.1833 -84.2000 59° Northeast 194 223 5,000 -100 Descending Atlanta TRACON
Fri 07:09:54 PM 33.2000 -84.1500 68° East 189 217 5,000  Level Atlanta TRACON
Fri 07:10:54 PM 33.2167 -84.1000 68° East 190 219 5,000  Level Atlanta TRACON
Fri 07:11:55 PM 33.2500 -84.0333 59° Northeast 186 214 5,000  Level Atlanta TRACON
Fri 07:12:55 PM 33.2667 -83.9833 68° East 184 212 5,000  Level Atlanta TRACON
Fri 07:13:55 PM 33.2833 -83.9333 68° East 175 201 5,000  Level Atlanta TRACON
Fri 07:14:55 PM 33.3000 -83.8667 73° East 185 213 5,000  Level Atlanta TRACON
Fri 07:15:55 PM 33.3333 -83.8167 51° Northeast 185 213 5,000  Level Atlanta TRACON
Fri 07:16:55 PM 33.3500 -83.7667 68° East 183 211 5,000  Level Atlanta TRACON
Fri 07:17:55 PM 33.3667 -83.7167 68° East 180 207 5,000  Level Atlanta TRACON
Fri 07:18:55 PM 33.4000 -83.6500 59° Northeast 180 207 5,000  Level Atlanta TRACON
Fri 07:20:01 PM 33.4167 -83.6000 68° East 182 209 5,000  Level Atlanta TRACON
Fri 07:20:55 PM 33.4333 -83.5333 73° East 195 224 5,000  Level Atlanta TRACON
Fri 07:22:01 PM 33.4500 -83.5000 59° Northeast 161 185 5,000  Level Atlanta TRACON
Fri 07:23:01 PM 33.4833 -83.4333 59° Northeast 173 199 5,000  Level Atlanta TRACON

Login

Don't have an account? Register now (free) for customized features, flight alerts, and more!